createdAt,value
2017-08-15T00:00:24.461Z,99.90
2017-08-15T00:02:52.068Z,99.90
2017-08-15T00:05:19.601Z,99.90
2017-08-15T00:07:47.187Z,99.90
2017-08-15T00:10:14.706Z,99.90
2017-08-15T00:12:43.110Z,99.90
2017-08-15T00:15:10.638Z,99.90
2017-08-15T00:17:38.158Z,99.90
2017-08-15T00:20:05.908Z,99.90
2017-08-15T00:22:33.434Z,99.90
2017-08-15T00:25:01.746Z,99.90
2017-08-15T00:27:29.289Z,99.90
2017-08-15T00:29:56.865Z,99.90
2017-08-15T00:32:24.386Z,99.90
2017-08-15T00:34:52.697Z,99.90
2017-08-15T00:37:20.266Z,99.90
2017-08-15T00:39:47.818Z,99.90
2017-08-15T00:42:15.381Z,99.90
2017-08-15T00:44:42.902Z,99.90
2017-08-15T00:47:11.193Z,99.90
2017-08-15T00:49:38.736Z,99.90
2017-08-15T00:52:07.154Z,99.90
2017-08-15T00:54:34.677Z,99.90
2017-08-15T00:57:03.093Z,99.90
2017-08-15T00:59:30.656Z,99.90
2017-08-15T01:01:58.211Z,99.90
2017-08-15T01:04:25.875Z,99.90
2017-08-15T01:06:53.396Z,99.90
2017-08-15T01:09:21.673Z,99.90
2017-08-15T01:11:49.989Z,99.90
2017-08-15T01:14:17.650Z,99.90
2017-08-15T01:16:45.217Z,99.90
2017-08-15T01:19:12.776Z,99.90
2017-08-15T01:21:40.328Z,99.90
2017-08-15T01:24:07.894Z,99.90
2017-08-15T01:26:35.599Z,99.90
2017-08-15T01:29:03.130Z,99.90
2017-08-15T01:31:30.668Z,99.90
2017-08-15T01:33:58.202Z,99.90
2017-08-15T01:36:25.721Z,99.90
2017-08-15T01:38:53.246Z,99.90
2017-08-15T01:41:20.804Z,99.90
2017-08-15T01:43:48.382Z,99.90
2017-08-15T01:46:15.925Z,99.90
2017-08-15T01:48:43.485Z,99.90
2017-08-15T01:51:11.148Z,99.90
2017-08-15T01:53:38.701Z,99.90
2017-08-15T01:56:06.265Z,99.90
2017-08-15T01:58:33.829Z,99.90
2017-08-15T02:01:01.392Z,99.90
2017-08-15T02:03:29.049Z,99.90
2017-08-15T02:05:56.605Z,99.90
2017-08-15T02:08:24.205Z,99.90
2017-08-15T02:10:51.736Z,99.90
2017-08-15T02:13:19.272Z,99.90
2017-08-15T02:15:46.807Z,99.90
2017-08-15T02:18:15.227Z,99.90
2017-08-15T02:20:42.750Z,99.90
2017-08-15T02:23:11.037Z,99.90
2017-08-15T02:25:38.584Z,99.90
2017-08-15T02:28:06.873Z,99.90
2017-08-15T02:30:34.458Z,99.90
2017-08-15T02:33:01.990Z,99.90
2017-08-15T02:35:29.508Z,99.90
2017-08-15T02:37:57.030Z,99.90
2017-08-15T02:40:24.567Z,99.90
2017-08-15T02:42:52.258Z,99.90
2017-08-15T02:45:19.853Z,99.90
2017-08-15T02:47:47.477Z,99.90
2017-08-15T02:50:15.006Z,99.90
2017-08-15T02:52:43.322Z,99.90
2017-08-15T02:55:10.885Z,99.90
2017-08-15T02:57:38.413Z,99.90
2017-08-15T03:00:05.947Z,99.90
2017-08-15T03:02:34.261Z,99.90
2017-08-15T03:05:01.773Z,99.90
2017-08-15T03:07:29.293Z,99.90
2017-08-15T03:09:56.836Z,99.90
2017-08-15T03:12:24.349Z,99.90
2017-08-15T03:14:51.967Z,99.90
2017-08-15T03:17:19.525Z,99.90
2017-08-15T03:19:47.089Z,99.90
2017-08-15T03:22:15.338Z,99.90
2017-08-15T03:24:42.878Z,99.90
2017-08-15T03:27:11.222Z,99.90
2017-08-15T03:29:38.760Z,99.90
2017-08-15T03:32:06.292Z,99.90
2017-08-15T03:34:33.883Z,99.90
2017-08-15T03:37:01.444Z,99.90
2017-08-15T03:39:28.998Z,99.90
2017-08-15T03:41:56.518Z,99.90
2017-08-15T03:44:24.802Z,99.90
2017-08-15T03:46:53.317Z,99.90
2017-08-15T03:49:20.837Z,99.90
2017-08-15T03:51:49.122Z,99.90
2017-08-15T03:54:16.713Z,99.90
2017-08-15T03:56:44.241Z,99.90
2017-08-15T03:59:12.553Z,99.90
2017-08-15T04:01:40.415Z,99.90
2017-08-15T04:04:07.973Z,99.90
2017-08-15T04:06:35.489Z,99.90
2017-08-15T04:09:03.813Z,99.90
2017-08-15T04:11:31.370Z,99.90
2017-08-15T04:13:58.892Z,99.90
2017-08-15T04:16:26.659Z,99.90
2017-08-15T04:18:54.946Z,99.90
2017-08-15T04:21:22.503Z,99.90
2017-08-15T04:23:50.094Z,99.90
2017-08-15T04:26:17.652Z,99.90
2017-08-15T04:28:45.174Z,99.90
2017-08-15T04:31:13.473Z,99.90
2017-08-15T04:33:41.049Z,99.90
2017-08-15T04:36:08.611Z,99.90
2017-08-15T04:38:36.295Z,99.90
2017-08-15T04:41:03.932Z,99.90
2017-08-15T04:43:31.458Z,99.90
2017-08-15T04:46:00.096Z,99.90
2017-08-15T04:48:27.643Z,99.90
2017-08-15T04:50:55.170Z,99.90
2017-08-15T04:53:22.701Z,99.90
2017-08-15T04:55:50.419Z,99.90
2017-08-15T04:58:17.942Z,99.90
2017-08-15T05:00:46.357Z,99.90
2017-08-15T05:03:13.885Z,99.90
2017-08-15T05:05:42.165Z,99.90
2017-08-15T05:08:10.470Z,99.90
2017-08-15T05:10:38.033Z,99.90
2017-08-15T05:13:05.595Z,99.90
2017-08-15T05:15:33.149Z,99.90
2017-08-15T05:18:00.708Z,99.90
2017-08-15T05:20:28.229Z,99.90
2017-08-15T05:22:56.531Z,99.90
2017-08-15T05:25:24.048Z,99.90
2017-08-15T05:27:51.669Z,99.90
2017-08-15T05:30:19.224Z,99.90
2017-08-15T05:32:46.800Z,99.90
2017-08-15T05:35:14.346Z,99.90
2017-08-15T05:37:41.906Z,99.90
2017-08-15T05:40:09.416Z,99.90
2017-08-15T05:42:37.746Z,99.90
2017-08-15T05:45:05.293Z,99.90
2017-08-15T05:47:33.066Z,99.90
2017-08-15T05:50:00.630Z,99.90
2017-08-15T05:52:28.170Z,99.90
2017-08-15T05:54:55.689Z,99.90
2017-08-15T05:57:23.224Z,99.90
2017-08-15T05:59:50.765Z,99.90
2017-08-15T06:02:18.289Z,99.90
2017-08-15T06:04:46.632Z,99.90
2017-08-15T06:07:14.173Z,99.90
2017-08-15T06:09:41.725Z,99.90
2017-08-15T06:12:09.281Z,99.90
2017-08-15T06:14:36.837Z,99.90
2017-08-15T06:17:04.399Z,99.90
2017-08-15T06:19:32.061Z,99.90
2017-08-15T06:21:59.597Z,99.90
2017-08-15T06:24:27.177Z,99.90
2017-08-15T06:26:54.753Z,99.90
2017-08-15T06:29:22.293Z,99.90
2017-08-15T06:31:49.904Z,99.90
2017-08-15T06:34:17.941Z,99.90
2017-08-15T06:36:45.493Z,99.90
2017-08-15T06:39:13.154Z,99.90
2017-08-15T06:41:40.670Z,99.90
2017-08-15T06:44:08.992Z,99.90
2017-08-15T06:46:36.654Z,99.90
2017-08-15T06:49:04.182Z,99.90
2017-08-15T06:51:32.597Z,99.90
2017-08-15T06:54:00.161Z,99.90
2017-08-15T06:56:27.683Z,99.90
2017-08-15T06:58:55.237Z,99.90
2017-08-15T07:01:23.525Z,99.90
2017-08-15T07:03:51.049Z,99.90
2017-08-15T07:06:18.646Z,99.90
2017-08-15T07:08:46.175Z,99.90
2017-08-15T07:11:13.991Z,99.90
2017-08-15T07:13:41.531Z,99.90
2017-08-15T07:16:09.059Z,99.90
2017-08-15T07:18:36.671Z,99.90
2017-08-15T07:21:04.205Z,99.90
2017-08-15T07:23:31.833Z,99.90
2017-08-15T07:25:59.466Z,99.90
2017-08-15T07:28:27.019Z,99.90
2017-08-15T07:30:54.542Z,99.90
2017-08-15T07:33:22.131Z,99.90
2017-08-15T07:35:49.673Z,99.90
2017-08-15T07:38:17.252Z,99.90
2017-08-15T07:40:44.814Z,99.90
2017-08-15T07:43:12.472Z,99.90
2017-08-15T07:45:39.992Z,99.90
2017-08-15T07:48:08.942Z,99.90
2017-08-15T07:50:36.684Z,99.90
2017-08-15T07:53:04.318Z,99.90
2017-08-15T07:55:31.858Z,99.90
2017-08-15T07:57:59.474Z,99.90
2017-08-15T08:00:26.998Z,99.90
2017-08-15T08:02:54.586Z,99.90
2017-08-15T08:05:22.125Z,99.90
2017-08-15T08:07:49.807Z,99.90
2017-08-15T08:10:17.369Z,99.90
2017-08-15T08:12:44.933Z,99.90
2017-08-15T08:15:12.494Z,99.90
2017-08-15T08:17:40.149Z,99.90
2017-08-15T08:20:07.708Z,99.90
2017-08-15T08:22:35.371Z,99.90
2017-08-15T08:25:02.946Z,99.90
2017-08-15T08:27:30.493Z,99.90
2017-08-15T08:29:58.050Z,99.90
2017-08-15T08:32:25.560Z,99.90
2017-08-15T08:34:53.885Z,99.90
2017-08-15T08:37:21.403Z,99.90
2017-08-15T08:39:49.687Z,99.90
2017-08-15T08:42:17.295Z,99.90
2017-08-15T08:44:44.842Z,99.90
2017-08-15T08:47:12.383Z,99.90
2017-08-15T08:49:39.964Z,99.90
2017-08-15T08:52:07.486Z,99.90
2017-08-15T08:54:35.838Z,99.90
2017-08-15T08:57:03.464Z,99.90
2017-08-15T08:59:30.990Z,99.90
2017-08-15T09:01:58.510Z,99.90
2017-08-15T09:04:26.242Z,99.90
2017-08-15T09:06:53.908Z,99.90
2017-08-15T09:09:21.434Z,99.90
2017-08-15T09:11:48.974Z,99.50
2017-08-15T09:14:16.494Z,99.90
2017-08-15T09:16:44.050Z,99.50
2017-08-15T09:19:11.690Z,99.00
2017-08-15T09:21:40.065Z,99.50
2017-08-15T09:24:07.581Z,99.50
2017-08-15T09:26:35.161Z,98.00
2017-08-15T09:29:07.277Z,98.10
2017-08-15T09:31:34.797Z,98.10
2017-08-15T09:34:02.341Z,96.00
2017-08-15T09:36:30.673Z,97.20
2017-08-15T09:38:58.332Z,97.10
2017-08-15T09:41:27.226Z,95.10
2017-08-15T09:43:55.562Z,94.70
2017-08-15T09:46:23.083Z,94.70
2017-08-15T09:48:50.627Z,95.00
2017-08-15T09:51:18.154Z,94.90
2017-08-15T09:53:45.722Z,95.70
2017-08-15T09:56:14.142Z,94.70
2017-08-15T09:58:47.404Z,95.30
2017-08-15T10:01:14.957Z,93.70
2017-08-15T10:03:42.530Z,93.20
2017-08-15T10:06:10.056Z,94.20
2017-08-15T10:08:37.646Z,92.90
2017-08-15T10:11:05.210Z,93.40
2017-08-15T10:13:32.739Z,91.90
2017-08-15T10:16:00.280Z,93.30
2017-08-15T10:18:27.830Z,91.20
2017-08-15T10:20:56.160Z,90.90
2017-08-15T10:23:23.721Z,90.70
2017-08-15T10:25:51.475Z,90.10
2017-08-15T10:28:18.993Z,89.70
2017-08-15T10:30:47.419Z,87.00
2017-08-15T10:33:15.079Z,87.00
2017-08-15T10:35:42.597Z,90.00
2017-08-15T10:38:10.202Z,86.20
2017-08-15T10:40:37.728Z,84.80
2017-08-15T10:43:06.780Z,80.30
2017-08-15T10:45:34.516Z,80.30
2017-08-15T10:48:02.129Z,79.70
2017-08-15T10:50:29.750Z,77.60
2017-08-15T10:52:57.405Z,74.50
2017-08-15T10:55:24.927Z,76.40
2017-08-15T10:57:52.454Z,72.00
2017-08-15T11:00:19.998Z,71.30
2017-08-15T11:02:47.536Z,70.10
2017-08-15T11:05:15.066Z,66.50
2017-08-15T11:07:42.660Z,63.10
2017-08-15T11:10:10.180Z,59.80
2017-08-15T11:12:38.462Z,55.50
2017-08-15T11:15:06.050Z,55.50
2017-08-15T11:17:34.634Z,53.30
2017-08-15T11:20:02.179Z,50.50
2017-08-15T11:22:29.760Z,48.70
2017-08-15T11:24:57.278Z,47.70
2017-08-15T11:27:25.565Z,43.20
2017-08-15T11:29:53.153Z,43.10
2017-08-15T11:32:20.813Z,42.10
2017-08-15T11:34:48.337Z,42.80
2017-08-15T11:37:16.643Z,39.90
2017-08-15T11:39:44.165Z,39.80
2017-08-15T11:42:12.449Z,39.60
2017-08-15T11:44:40.837Z,40.30
2017-08-15T11:47:08.521Z,40.20
2017-08-15T11:49:36.129Z,38.30
2017-08-15T11:52:03.748Z,37.80
2017-08-15T11:54:31.286Z,37.30
2017-08-15T11:56:58.811Z,36.20
2017-08-15T11:59:27.241Z,34.90
2017-08-15T12:01:54.777Z,34.80
2017-08-15T12:04:22.402Z,34.20
2017-08-15T12:06:49.994Z,33.80
2017-08-15T12:09:17.586Z,33.60
2017-08-15T12:11:45.227Z,33.60
2017-08-15T12:14:12.806Z,33.70
2017-08-15T12:16:40.365Z,33.10
2017-08-15T12:19:07.930Z,32.70
2017-08-15T12:21:35.482Z,31.60
2017-08-15T12:24:03.663Z,31.60
2017-08-15T12:26:31.186Z,31.40
2017-08-15T12:28:58.725Z,31.00
2017-08-15T12:31:27.038Z,31.00
2017-08-15T12:33:54.713Z,30.20
2017-08-15T12:36:22.281Z,30.30
2017-08-15T12:38:49.833Z,30.20
2017-08-15T12:41:17.362Z,29.60
2017-08-15T12:43:44.897Z,30.20
2017-08-15T12:46:12.426Z,30.60
2017-08-15T12:48:39.953Z,30.00
2017-08-15T12:51:07.526Z,29.70
2017-08-15T12:53:35.048Z,30.10
2017-08-15T12:56:03.365Z,29.40
2017-08-15T12:58:30.984Z,29.40
2017-08-15T13:00:58.697Z,29.10
2017-08-15T13:03:26.249Z,29.70
2017-08-15T13:05:53.783Z,30.00
2017-08-15T13:08:21.366Z,29.50
2017-08-15T13:10:48.958Z,29.80
2017-08-15T13:13:16.830Z,30.00
2017-08-15T13:15:44.372Z,29.60
2017-08-15T13:18:11.890Z,29.50
2017-08-15T13:20:39.498Z,28.90
2017-08-15T13:23:07.328Z,29.10
2017-08-15T13:25:34.846Z,28.90
2017-08-15T13:28:03.152Z,29.30
2017-08-15T13:30:30.673Z,29.60
2017-08-15T13:32:58.199Z,29.00
2017-08-15T13:35:25.749Z,29.30
2017-08-15T13:37:53.282Z,29.20
2017-08-15T13:40:20.824Z,29.00
2017-08-15T13:42:49.251Z,28.90
2017-08-15T13:45:16.803Z,28.90
2017-08-15T13:47:44.330Z,30.10
2017-08-15T13:50:12.641Z,30.60
2017-08-15T13:52:40.356Z,30.50
2017-08-15T13:55:08.639Z,29.60
2017-08-15T13:57:36.945Z,29.60
2017-08-15T14:00:04.469Z,29.50
2017-08-15T14:02:32.762Z,29.30
2017-08-15T14:05:01.068Z,30.10
2017-08-15T14:07:28.589Z,30.00
2017-08-15T14:09:56.880Z,33.60
2017-08-15T14:12:24.466Z,33.60
2017-08-15T14:14:52.072Z,32.90
2017-08-15T14:17:19.594Z,33.10
2017-08-15T14:19:47.142Z,33.40
2017-08-15T14:22:14.666Z,35.00
2017-08-15T14:24:43.222Z,36.10
2017-08-15T14:27:10.762Z,36.00
2017-08-15T14:29:38.282Z,36.70
2017-08-15T14:32:05.813Z,37.30
2017-08-15T14:34:34.121Z,37.30
2017-08-15T14:37:01.657Z,37.20
2017-08-15T14:39:29.945Z,37.70
2017-08-15T14:41:57.489Z,37.60
2017-08-15T14:44:25.777Z,39.60
2017-08-15T14:46:54.083Z,40.60
2017-08-15T14:49:21.626Z,40.60
2017-08-15T14:51:49.153Z,41.80
2017-08-15T14:54:16.687Z,42.40
2017-08-15T14:56:44.225Z,43.00
2017-08-15T14:59:11.741Z,43.10
2017-08-15T15:01:40.031Z,42.70
2017-08-15T15:04:07.829Z,42.70
2017-08-15T15:06:35.354Z,42.40
2017-08-15T15:09:02.870Z,40.60
2017-08-15T15:11:30.423Z,40.00
2017-08-15T15:13:57.939Z,38.90
2017-08-15T15:16:25.467Z,38.30
2017-08-15T15:18:53.792Z,37.20
2017-08-15T15:21:21.312Z,37.10
2017-08-15T15:23:48.850Z,38.10
2017-08-15T15:26:16.399Z,39.00
2017-08-15T15:28:43.978Z,40.40
2017-08-15T15:31:11.501Z,41.30
2017-08-15T15:33:39.049Z,41.30
2017-08-15T15:36:06.573Z,42.30
2017-08-15T15:38:34.881Z,43.20
2017-08-15T15:41:02.417Z,43.60
2017-08-15T15:43:30.001Z,43.80
2017-08-15T15:45:57.522Z,44.20
2017-08-15T15:48:25.836Z,45.20
2017-08-15T15:50:53.442Z,45.10
2017-08-15T15:53:20.961Z,46.40
2017-08-15T15:55:48.516Z,47.10
2017-08-15T15:58:16.092Z,47.40
2017-08-15T16:00:43.994Z,46.90
2017-08-15T16:03:12.324Z,46.90
2017-08-15T16:05:39.856Z,47.00
2017-08-15T16:08:07.540Z,47.20
2017-08-15T16:10:35.076Z,47.40
2017-08-15T16:13:02.610Z,47.80
2017-08-15T16:15:30.906Z,48.40
2017-08-15T16:17:59.216Z,49.10
2017-08-15T16:20:26.774Z,49.00
2017-08-15T16:22:54.294Z,50.20
2017-08-15T16:25:22.602Z,50.70
2017-08-15T16:27:50.126Z,50.70
2017-08-15T16:30:18.517Z,50.50
2017-08-15T16:32:46.061Z,50.40
2017-08-15T16:35:14.355Z,51.10
2017-08-15T16:37:41.877Z,51.10
2017-08-15T16:40:09.426Z,51.70
2017-08-15T16:42:36.945Z,51.60
2017-08-15T16:45:04.470Z,52.10
2017-08-15T16:47:32.782Z,51.90
2017-08-15T16:50:00.309Z,51.80
2017-08-15T16:52:28.593Z,52.10
2017-08-15T16:54:56.899Z,52.40
2017-08-15T16:57:24.423Z,52.40
2017-08-15T16:59:52.713Z,52.90
2017-08-15T17:02:20.251Z,52.80
2017-08-15T17:04:48.590Z,53.00
2017-08-15T17:07:16.237Z,52.90
2017-08-15T17:09:43.779Z,53.70
2017-08-15T17:12:11.302Z,53.70
2017-08-15T17:14:39.197Z,53.80
2017-08-15T17:17:06.807Z,54.10
2017-08-15T17:19:34.350Z,54.70
2017-08-15T17:22:01.878Z,55.00
2017-08-15T17:24:29.665Z,55.40
2017-08-15T17:26:57.214Z,56.00
2017-08-15T17:29:24.840Z,56.40
2017-08-15T17:31:53.278Z,56.50
2017-08-15T17:34:20.830Z,56.50
2017-08-15T17:36:48.354Z,57.30
2017-08-15T17:39:16.671Z,57.60
2017-08-15T17:41:44.290Z,57.60
2017-08-15T17:44:12.581Z,58.30
2017-08-15T17:46:40.173Z,58.40
2017-08-15T17:49:07.730Z,58.60
2017-08-15T17:51:35.277Z,58.90
2017-08-15T17:54:02.844Z,59.40
2017-08-15T17:56:30.491Z,59.60
2017-08-15T17:58:58.267Z,60.20
2017-08-15T18:01:25.823Z,60.50
2017-08-15T18:03:53.923Z,61.10
2017-08-15T18:06:21.501Z,61.80
2017-08-15T18:08:49.149Z,62.40
2017-08-15T18:11:16.777Z,62.80
2017-08-15T18:13:44.436Z,63.40
2017-08-15T18:16:11.999Z,63.80
2017-08-15T18:18:39.563Z,64.30
2017-08-15T18:21:07.526Z,64.10
2017-08-15T18:23:35.091Z,57.80
2017-08-15T18:26:02.647Z,56.70
2017-08-15T18:28:30.204Z,57.10
2017-08-15T18:30:57.744Z,57.10
2017-08-15T18:33:25.602Z,57.70
2017-08-15T18:35:53.192Z,56.80
2017-08-15T18:38:20.745Z,55.70
2017-08-15T18:40:48.474Z,54.80
2017-08-15T18:43:16.892Z,55.80
2017-08-15T18:45:44.554Z,55.80
2017-08-15T18:48:12.078Z,56.90
2017-08-15T18:50:39.602Z,58.70
2017-08-15T18:53:07.144Z,60.90
2017-08-15T18:55:34.678Z,65.20
2017-08-15T18:58:02.261Z,99.90
2017-08-15T19:00:29.929Z,99.90
2017-08-15T19:02:57.476Z,99.90
2017-08-15T19:05:25.038Z,99.90
2017-08-15T19:07:52.592Z,99.90
2017-08-15T19:10:20.156Z,99.90
2017-08-15T19:12:47.728Z,99.90
2017-08-15T19:15:15.382Z,99.90
2017-08-15T19:17:42.927Z,99.90
2017-08-15T19:20:10.746Z,99.90
2017-08-15T19:22:39.113Z,99.90
2017-08-15T19:25:06.670Z,99.90
2017-08-15T19:27:34.210Z,99.90
2017-08-15T19:30:01.759Z,99.90
2017-08-15T19:32:29.290Z,99.90
2017-08-15T19:34:56.866Z,99.90
2017-08-15T19:37:24.426Z,99.90
2017-08-15T19:39:51.972Z,99.90
2017-08-15T19:42:19.554Z,99.90
2017-08-15T19:44:47.100Z,99.90
2017-08-15T19:47:14.662Z,99.90
2017-08-15T19:49:42.246Z,99.90
2017-08-15T19:52:09.830Z,99.90
2017-08-15T19:54:37.372Z,99.90
2017-08-15T19:57:04.902Z,99.90
2017-08-15T19:59:32.446Z,99.90
2017-08-15T20:02:00.017Z,99.90
2017-08-15T20:04:27.543Z,99.90
2017-08-15T20:06:55.955Z,99.90
2017-08-15T20:09:23.481Z,99.90
2017-08-15T20:11:51.815Z,99.90
2017-08-15T20:14:19.365Z,99.90
2017-08-15T20:16:46.917Z,99.90
2017-08-15T20:19:14.437Z,99.90
2017-08-15T20:21:42.835Z,99.90
2017-08-15T20:24:10.417Z,99.90
2017-08-15T20:26:37.944Z,99.90
2017-08-15T20:29:05.631Z,99.90
2017-08-15T20:31:33.150Z,99.90
2017-08-15T20:34:01.918Z,99.90
2017-08-15T20:36:29.760Z,99.90
2017-08-15T20:38:57.769Z,99.90
2017-08-15T20:41:26.432Z,99.90
2017-08-15T20:43:54.051Z,99.90
2017-08-15T20:46:21.643Z,99.90
2017-08-15T20:48:49.231Z,99.90
2017-08-15T20:51:17.576Z,99.90
2017-08-15T20:53:45.120Z,99.90
2017-08-15T20:56:12.678Z,99.90
2017-08-15T20:58:40.232Z,99.90
2017-08-15T21:01:07.806Z,99.90
2017-08-15T21:03:35.329Z,99.90
2017-08-15T21:06:02.873Z,99.90
2017-08-15T21:08:31.293Z,99.90
2017-08-15T21:10:58.821Z,99.90
2017-08-15T21:13:26.353Z,99.90
2017-08-15T21:15:53.985Z,99.90
2017-08-15T21:18:21.500Z,99.90
2017-08-15T21:20:49.073Z,99.90
2017-08-15T21:23:16.697Z,99.90
2017-08-15T21:25:44.216Z,99.90
2017-08-15T21:28:11.800Z,99.90
2017-08-15T21:30:39.435Z,99.90
2017-08-15T21:33:06.958Z,99.90
2017-08-15T21:35:34.556Z,99.90
2017-08-15T21:38:02.104Z,99.90
2017-08-15T21:40:29.758Z,99.90
2017-08-15T21:42:57.298Z,99.90
2017-08-15T21:45:24.822Z,99.90
2017-08-15T21:47:53.985Z,99.90
2017-08-15T21:50:21.667Z,99.90
2017-08-15T21:52:49.303Z,99.90
2017-08-15T21:55:16.830Z,99.90
2017-08-15T21:57:45.242Z,99.90
2017-08-15T22:00:12.753Z,99.90
2017-08-15T22:02:40.277Z,99.90
2017-08-15T22:05:07.819Z,99.90
2017-08-15T22:07:35.351Z,99.90
2017-08-15T22:10:02.885Z,99.90
2017-08-15T22:12:30.436Z,99.90
2017-08-15T22:14:57.953Z,99.90
2017-08-15T22:17:25.483Z,99.90
2017-08-15T22:19:53.782Z,99.90
2017-08-15T22:22:21.307Z,99.90
2017-08-15T22:24:49.589Z,99.90
2017-08-15T22:27:17.902Z,99.90
2017-08-15T22:29:45.430Z,99.90
2017-08-15T22:32:12.970Z,99.90
2017-08-15T22:34:40.506Z,99.90
2017-08-15T22:37:08.039Z,99.90
2017-08-15T22:39:35.558Z,99.90
2017-08-15T22:42:03.864Z,99.90
2017-08-15T22:44:31.386Z,99.90
2017-08-15T22:46:59.678Z,99.90
2017-08-15T22:49:28.091Z,99.90
2017-08-15T22:51:55.617Z,99.90
2017-08-15T22:54:23.905Z,99.90
2017-08-15T22:56:51.450Z,99.90
2017-08-15T22:59:19.739Z,99.90
2017-08-15T23:01:47.259Z,99.90
2017-08-15T23:04:14.807Z,99.90
2017-08-15T23:06:42.331Z,99.90
2017-08-15T23:09:09.849Z,99.90
2017-08-15T23:11:37.390Z,99.90
2017-08-15T23:14:04.908Z,99.90
2017-08-15T23:16:32.436Z,99.90
2017-08-15T23:19:00.743Z,99.90
2017-08-15T23:21:28.274Z,99.90
2017-08-15T23:23:56.560Z,99.90
2017-08-15T23:26:24.110Z,99.90
2017-08-15T23:28:52.398Z,99.90
2017-08-15T23:31:19.925Z,99.90
2017-08-15T23:33:47.482Z,99.90
2017-08-15T23:36:15.006Z,99.90
2017-08-15T23:38:42.529Z,99.90
2017-08-15T23:41:10.850Z,99.90
2017-08-15T23:43:38.397Z,99.90
2017-08-15T23:46:06.177Z,99.90
2017-08-15T23:48:33.822Z,99.90
2017-08-15T23:51:01.341Z,99.90
2017-08-15T23:53:29.629Z,99.90
2017-08-15T23:55:57.170Z,99.90
2017-08-15T23:58:25.451Z,99.90
